Diggs, Virginia
Current Conditions -  °F | °C
As of 7:15 AM on Sunday 21 Dec 2014 (Local Time) from KW75 Reporting Station
Overcast Overcast  
Wind Chill: 31°   Ceiling: 7000
Heat Index: 35°   Visibility: 10mi
Dew Point: 28°   Wind: 5mph
Humidity: 76%   Direction: 360°N
Pressure: 30.33"   Gusts: NA
Location:  37.44°N, 76.27°W
Report Text: KW75 211215Z AUTO 36004KT 10SM OVC070 02/M02 A3033 RMK AO1 T00171022
Loading
Personal Weather Stations






























Interactive Weather Map New forecast layout! Learn more

10-Day Weather Forecast

Advertisements
Track Severe Weather on mobile